Time;durP1;ratioP1;P1;durP2;ratioP2;P2;SDS_P1;SDS_P2;PMS_P1;PMS_P2;Temp;Humidity;BMP_temperature;BMP_pressure;BME280_temperature;BME280_humidity;BME280_pressure;Samples;Min_cycle;Max_cycle;Signal;HPM_P1;HPM_P2
2023/05/21 00:00:52;;;;;;;4.00;3.60;;;;;;;12.09;100.00;102299.38;5033758;28;21062;-44
2023/05/21 00:03:20;;;;;;;4.30;3.33;;;;;;;12.15;100.00;102301.38;5034105;28;20479;-46
2023/05/21 00:05:48;;;;;;;4.20;3.90;;;;;;;12.17;100.00;102290.47;5034449;28;20440;-45
2023/05/21 00:08:16;;;;;;;4.13;3.83;;;;;;;12.13;100.00;102303.34;5034528;28;20439;-44
2023/05/21 00:10:44;;;;;;;4.80;3.93;;;;;;;12.12;100.00;102288.31;5034145;28;20835;-48
2023/05/21 00:13:13;;;;;;;4.63;4.30;;;;;;;12.12;100.00;102292.84;5033808;28;20546;-45
2023/05/21 00:15:41;;;;;;;3.60;3.30;;;;;;;12.15;100.00;102293.34;5034172;28;20436;-44
2023/05/21 00:18:09;;;;;;;4.00;3.67;;;;;;;12.18;100.00;102284.13;5034232;28;20438;-44
2023/05/21 00:20:37;;;;;;;7.40;4.23;;;;;;;12.15;100.00;102276.44;5030728;28;20456;-46
2023/05/21 00:23:05;;;;;;;6.93;3.83;;;;;;;12.11;100.00;102283.97;5033925;28;20452;-44
2023/05/21 00:25:32;;;;;;;4.10;3.37;;;;;;;12.13;100.00;102283.78;5033860;28;21016;-45
2023/05/21 00:28:00;;;;;;;3.77;3.40;;;;;;;12.12;100.00;102277.63;5031553;28;20432;-44
2023/05/21 00:30:29;;;;;;;3.90;3.43;;;;;;;12.16;100.00;102272.75;5033636;28;20483;-51
2023/05/21 00:33:01;;;;;;;4.13;3.70;;;;;;;12.11;100.00;102269.75;5033514;28;20495;-43
2023/05/21 00:35:30;;;;;;;3.83;3.53;;;;;;;12.08;100.00;102268.28;5033706;28;20436;-46
2023/05/21 00:37:58;;;;;;;4.03;3.70;;;;;;;12.07;100.00;102263.06;5033932;28;20432;-44
2023/05/21 00:40:26;;;;;;;3.57;3.37;;;;;;;12.03;100.00;102262.59;5033874;28;20437;-45
2023/05/21 00:42:55;;;;;;;4.83;4.03;;;;;;;12.07;100.00;102255.03;5025594;28;20845;-47
2023/05/21 00:45:24;;;;;;;7.27;3.60;;;;;;;12.00;100.00;102252.25;5033786;28;20471;-49
2023/05/21 00:47:54;;;;;;;3.57;3.27;;;;;;;12.01;100.00;102245.03;5033408;28;20439;-44
2023/05/21 00:50:23;;;;;;;3.57;3.37;;;;;;;12.02;100.00;102250.22;5034041;28;20512;-50
2023/05/21 00:52:50;;;;;;;3.83;3.53;;;;;;;12.01;100.00;102243.19;5026018;28;20487;-44
2023/05/21 00:55:18;;;;;;;4.47;4.10;;;;;;;12.06;100.00;102258.75;5033414;28;20954;-46
2023/05/21 00:57:46;;;;;;;5.80;3.77;;;;;;;12.09;100.00;102256.56;5033416;28;20489;-44
2023/05/21 01:00:15;;;;;;;4.73;4.00;;;;;;;12.13;100.00;102244.50;5033292;28;20467;-44
2023/05/21 01:02:43;;;;;;;4.10;3.67;;;;;;;12.19;100.00;102245.66;5023992;28;20456;-49
2023/05/21 01:05:14;;;;;;;4.00;3.60;;;;;;;12.21;100.00;102247.16;5033351;28;20442;-42
2023/05/21 01:07:42;;;;;;;4.07;3.83;;;;;;;12.19;100.00;102243.00;5033241;28;20443;-46
2023/05/21 01:10:11;;;;;;;4.13;3.73;;;;;;;12.19;100.00;102246.50;5033100;28;20432;-44
2023/05/21 01:12:42;;;;;;;8.43;4.70;;;;;;;12.19;100.00;102238.50;5031356;28;20511;-48
2023/05/21 01:15:10;;;;;;;5.00;4.17;;;;;;;12.12;100.00;102234.00;5033103;28;20456;-46
2023/05/21 01:17:38;;;;;;;3.80;3.50;;;;;;;12.11;100.00;102232.31;5032935;28;20432;-44
2023/05/21 01:20:09;;;;;;;4.80;3.93;;;;;;;12.10;100.00;102238.66;5033073;28;20841;-46
2023/05/21 01:22:43;;;;;;;4.13;3.83;;;;;;;12.14;100.00;102243.53;5032319;28;20470;-47
2023/05/21 01:25:13;;;;;;;3.90;3.60;;;;;;;12.11;100.00;102233.16;5032907;28;20495;-47
2023/05/21 01:27:41;;;;;;;3.87;3.50;;;;;;;12.09;100.00;102227.16;5030699;28;20443;-47
2023/05/21 01:30:10;;;;;;;4.90;4.33;;;;;;;12.06;100.00;102237.34;5032920;28;20428;-44
2023/05/21 01:32:45;;;;;;;4.20;3.73;;;;;;;12.02;100.00;102226.16;5032043;28;20499;-46
2023/05/21 01:35:17;;;;;;;4.70;3.70;;;;;;;11.99;100.00;102218.47;5032705;28;20448;-46
2023/05/21 01:37:51;;;;;;;3.90;3.60;;;;;;;11.98;100.00;102214.13;5032604;28;20440;-44
2023/05/21 01:40:25;;;;;;;5.10;4.70;;;;;;;11.97;100.00;102217.00;5032494;28;20432;-47
2023/05/21 01:42:53;;;;;;;4.47;3.73;;;;;;;11.90;100.00;102210.63;5031872;28;20463;-46
2023/05/21 01:45:23;;;;;;;3.90;3.70;;;;;;;11.88;100.00;102215.31;5032626;28;20439;-44
2023/05/21 01:47:54;;;;;;;4.57;4.10;;;;;;;11.88;100.00;102218.00;5032382;28;20432;-45
2023/05/21 01:50:23;;;;;;;6.77;3.57;;;;;;;11.86;100.00;102209.28;5032360;28;20836;-46
2023/05/21 01:52:52;;;;;;;4.57;4.17;;;;;;;11.87;100.00;102213.66;5031836;28;20476;-48
2023/05/21 01:55:23;;;;;;;4.80;4.37;;;;;;;11.84;100.00;102212.16;5032453;28;20436;-45
2023/05/21 01:57:52;;;;;;;4.30;4.00;;;;;;;11.85;100.00;102216.50;5032316;28;20439;-48
2023/05/21 02:00:21;;;;;;;7.60;3.73;;;;;;;11.87;100.00;102201.13;5032317;28;20523;-45
2023/05/21 02:02:49;;;;;;;4.77;4.27;;;;;;;11.92;100.00;102211.28;5031464;28;20471;-45
2023/05/21 02:05:17;;;;;;;4.30;3.90;;;;;;;11.90;100.00;102197.28;5032133;28;20516;-49
2023/05/21 02:07:46;;;;;;;4.40;4.10;;;;;;;11.87;100.00;102208.31;5032177;28;20918;-48
2023/05/21 02:10:14;;;;;;;3.90;3.67;;;;;;;11.89;100.00;102199.09;5032079;28;20438;-48
2023/05/21 02:12:43;;;;;;;3.87;3.67;;;;;;;11.86;100.00;102201.28;5031223;28;20482;-45
2023/05/21 02:15:13;;;;;;;3.87;3.67;;;;;;;11.87;100.00;102201.13;5032075;28;20428;-45
2023/05/21 02:17:41;;;;;;;5.20;4.80;;;;;;;11.90;100.00;102205.28;5031858;28;20965;-47
2023/05/21 02:20:10;;;;;;;4.83;4.20;;;;;;;11.93;100.00;102197.78;5032187;28;20456;-44
2023/05/21 02:22:39;;;;;;;4.73;4.23;;;;;;;11.93;100.00;102196.94;5031183;28;20471;-47
2023/05/21 02:25:08;;;;;;;4.10;3.90;;;;;;;11.95;100.00;102198.44;5031609;28;20945;-45
2023/05/21 02:27:37;;;;;;;4.50;4.13;;;;;;;11.95;100.00;102182.38;5029732;28;20467;-46
2023/05/21 02:30:08;;;;;;;5.63;4.53;;;;;;;11.94;100.00;102190.59;5031793;28;20553;-46
2023/05/21 02:32:35;;;;;;;4.93;4.27;;;;;;;11.93;100.00;102186.25;5028908;28;20889;-46
2023/05/21 02:35:04;;;;;;;7.27;3.93;;;;;;;11.95;100.00;102189.56;5031772;28;20482;-48
2023/05/21 02:37:33;;;;;;;4.33;4.07;;;;;;;11.94;100.00;102188.75;5031753;28;20450;-45
2023/05/21 02:40:02;;;;;;;4.63;4.27;;;;;;;11.98;100.00;102194.56;5031773;28;20791;-47
2023/05/21 02:42:30;;;;;;;5.63;4.03;;;;;;;11.93;100.00;102187.06;5030724;28;20548;-46
2023/05/21 02:44:58;;;;;;;3.80;3.33;;;;;;;11.94;100.00;102195.94;5031784;28;20432;-44
2023/05/21 02:47:27;;;;;;;3.93;3.40;;;;;;;11.92;100.00;102185.41;5031833;28;20456;-43
2023/05/21 02:49:54;;;;;;;5.00;4.03;;;;;;;11.87;100.00;102190.44;5031631;28;20432;-44
2023/05/21 02:52:22;;;;;;;7.63;3.90;;;;;;;11.85;100.00;102179.09;5027975;28;20535;-46
2023/05/21 02:54:51;;;;;;;4.37;4.17;;;;;;;11.84;100.00;102185.44;5031282;28;20471;-46
2023/05/21 02:57:19;;;;;;;6.63;5.00;;;;;;;11.87;100.00;102181.56;5031703;28;20436;-45
2023/05/21 02:59:46;;;;;;;5.60;4.97;;;;;;;11.85;100.00;102175.56;5031499;28;20493;-42
2023/05/21 03:02:15;;;;;;;5.03;4.63;;;;;;;11.85;100.00;102178.25;5030716;28;20995;-43
2023/05/21 03:04:45;;;;;;;4.20;3.90;;;;;;;11.86;100.00;102171.88;5031518;28;20433;-44
2023/05/21 03:07:13;;;;;;;5.63;4.80;;;;;;;11.89;100.00;102168.84;5031561;28;20949;-45
2023/05/21 03:09:41;;;;;;;4.87;4.50;;;;;;;11.86;100.00;102177.22;5031319;28;20519;-45
2023/05/21 03:12:10;;;;;;;5.40;5.00;;;;;;;11.86;100.00;102182.56;5030875;28;20522;-45
2023/05/21 03:14:38;;;;;;;4.80;4.43;;;;;;;11.86;100.00;102170.03;5031530;28;20471;-51
2023/05/21 03:17:05;;;;;;;5.17;4.80;;;;;;;11.87;100.00;102170.88;5031425;28;20521;-46
2023/05/21 03:19:34;;;;;;;4.43;4.13;;;;;;;11.87;100.00;102158.34;5031399;28;20439;-44
2023/05/21 03:22:04;;;;;;;4.50;4.13;;;;;;;11.91;100.00;102166.88;5030895;28;20471;-45
2023/05/21 03:24:32;;;;;;;5.10;4.60;;;;;;;11.90;100.00;102166.03;5030784;28;20464;-46
2023/05/21 03:27:00;;;;;;;5.07;4.77;;;;;;;11.96;100.00;102162.69;5029370;28;20534;-43
2023/05/21 03:29:28;;;;;;;5.60;4.57;;;;;;;11.93;100.00;102167.53;5031343;28;20439;-45
2023/05/21 03:31:56;;;;;;;4.60;4.30;;;;;;;12.00;100.00;102158.66;5031029;28;20436;-45
2023/05/21 03:34:24;;;;;;;9.40;5.10;;;;;;;12.02;100.00;102150.47;5030324;28;20482;-45
2023/05/21 03:36:52;;;;;;;5.47;5.07;;;;;;;12.07;100.00;102142.75;5033291;28;20519;-44
2023/05/21 03:39:21;;;;;;;6.03;5.53;;;;;;;12.08;100.00;102150.63;5034980;28;20482;-45
2023/05/21 03:41:49;;;;;;;5.53;5.00;;;;;;;12.12;100.00;102154.63;5034777;28;20486;-45
2023/05/21 03:44:16;;;;;;;5.73;4.50;;;;;;;12.15;100.00;102150.75;5034307;28;20555;-44
2023/05/21 03:46:44;;;;;;;6.57;6.07;;;;;;;12.19;100.00;102155.56;5030458;28;20523;-43
2023/05/21 03:49:14;;;;;;;4.93;4.63;;;;;;;12.24;100.00;102151.56;5021186;28;20941;-43
2023/05/21 03:51:41;;;;;;;5.07;4.60;;;;;;;12.25;100.00;102154.03;5033652;28;20443;-43
2023/05/21 03:54:09;;;;;;;6.97;4.80;;;;;;;12.25;100.00;102151.38;5031843;28;20468;-48
2023/05/21 03:56:38;;;;;;;5.30;4.80;;;;;;;12.32;100.00;102149.69;5024596;28;20528;-43
2023/05/21 03:59:06;;;;;;;6.37;5.50;;;;;;;12.42;100.00;102153.00;5014226;28;20499;-43
2023/05/21 04:01:33;;;;;;;5.90;5.27;;;;;;;12.51;100.00;102153.78;5014551;28;20464;-46
2023/05/21 04:04:01;;;;;;;5.63;5.23;;;;;;;12.48;100.00;102149.63;5014052;28;20489;-46
2023/05/21 04:06:29;;;;;;;7.30;6.13;;;;;;;12.52;100.00;102147.41;5014653;28;20934;-43
2023/05/21 04:08:57;;;;;;;5.30;4.90;;;;;;;12.51;100.00;102146.59;5014639;28;20433;-46
2023/05/21 04:11:25;;;;;;;5.53;5.10;;;;;;;12.51;100.00;102149.28;5014308;28;20939;-43
2023/05/21 04:13:54;;;;;;;5.60;5.20;;;;;;;12.51;100.00;102143.09;5013972;28;20469;-44
2023/05/21 04:16:23;;;;;;;6.67;4.87;;;;;;;12.57;100.00;102143.19;5013122;28;20503;-44
2023/05/21 04:18:54;;;;;;;5.50;5.00;;;;;;;12.72;100.00;102136.06;5014482;28;20432;-44
2023/05/21 04:21:21;;;;;;;8.93;5.73;;;;;;;12.92;100.00;102143.66;5014444;28;20438;-46
2023/05/21 04:23:49;;;;;;;5.20;4.80;;;;;;;13.37;100.00;102146.34;5010630;28;20472;-44
2023/05/21 04:26:17;;;;;;;5.60;4.93;;;;;;;13.45;100.00;102145.44;5017025;28;20841;-44
2023/05/21 04:28:44;;;;;;;7.17;5.30;;;;;;;13.86;100.00;102142.19;5033661;28;20436;-43
2023/05/21 04:31:13;;;;;;;5.30;4.80;;;;;;;13.99;100.00;102152.28;5033572;28;20428;-43
2023/05/21 04:33:44;;;;;;;6.27;5.70;;;;;;;13.84;100.00;102146.06;5025393;28;20471;-44
2023/05/21 04:36:12;;;;;;;7.93;6.40;;;;;;;13.88;100.00;102154.59;5033888;28;20825;-46
2023/05/21 04:38:40;;;;;;;5.33;5.03;;;;;;;13.75;100.00;102152.53;5033822;28;20436;-48
2023/05/21 04:41:09;;;;;;;6.13;5.53;;;;;;;13.65;100.00;102150.09;5033549;28;20941;-44
2023/05/21 04:43:37;;;;;;;9.33;5.60;;;;;;;14.35;100.00;102153.22;5032814;28;20471;-45
2023/05/21 04:46:05;;;;;;;6.87;5.10;;;;;;;14.78;100.00;102140.69;5025505;28;20425;-46
2023/05/21 04:48:34;;;;;;;5.50;5.00;;;;;;;15.05;100.00;102143.69;5013194;28;20421;-45
2023/05/21 04:51:04;;;;;;;6.93;5.47;;;;;;;14.86;100.00;102135.22;5013308;28;20487;-45
2023/05/21 04:53:32;;;;;;;5.27;4.93;;;;;;;14.54;100.00;102129.50;5012782;28;20493;-46
2023/05/21 04:56:01;;;;;;;6.50;5.77;;;;;;;14.90;100.00;102130.31;5013118;28;20468;-44
2023/05/21 04:58:31;;;;;;;5.30;4.80;;;;;;;15.69;100.00;102121.06;5013196;28;20488;-48
2023/05/21 05:01:01;;;;;;;5.70;5.13;;;;;;;16.18;100.00;102115.56;5013107;28;20491;-41
2023/05/21 05:03:30;;;;;;;5.93;5.50;;;;;;;16.59;100.00;102115.53;5013023;28;20467;-44
2023/05/21 05:06:00;;;;;;;6.60;4.50;;;;;;;16.97;100.00;102110.44;5013292;28;20440;-46
2023/05/21 05:08:27;;;;;;;5.70;4.50;;;;;;;17.49;100.00;102120.41;5023903;28;20454;-43
2023/05/21 05:10:55;;;;;;;5.03;4.17;;;;;;;17.60;100.00;102101.75;5033062;28;20439;-44
2023/05/21 05:13:23;;;;;;;4.80;4.40;;;;;;;16.89;100.00;102113.34;5031886;28;20467;-44
2023/05/21 05:15:52;;;;;;;4.80;4.30;;;;;;;16.74;100.00;102118.91;5033077;28;20501;-44
2023/05/21 05:18:21;;;;;;;6.60;5.10;;;;;;;17.41;100.00;102105.25;5032942;28;20459;-48
2023/05/21 05:20:49;;;;;;;9.43;5.57;;;;;;;17.77;100.00;102112.13;5032706;28;20485;-44
2023/05/21 05:23:18;;;;;;;4.70;4.30;;;;;;;18.17;100.00;102106.38;5032141;28;20473;-49
2023/05/21 05:25:45;;;;;;;5.00;4.60;;;;;;;18.25;100.00;102106.13;5032181;28;20431;-41
2023/05/21 05:28:13;;;;;;;5.30;4.40;;;;;;;18.68;100.00;102124.47;5031085;28;20450;-44
2023/05/21 05:30:41;;;;;;;5.30;4.43;;;;;;;18.98;100.00;102114.72;5032520;28;20519;-46
2023/05/21 05:33:08;;;;;;;7.77;5.50;;;;;;;19.07;99.12;102126.91;5031657;28;20447;-42
2023/05/21 05:35:36;;;;;;;5.60;5.10;;;;;;;18.70;99.73;102125.06;5032568;28;20566;-41
2023/05/21 05:38:04;;;;;;;4.43;3.93;;;;;;;17.61;100.00;102121.47;5032562;28;20482;-42
2023/05/21 05:40:33;;;;;;;4.53;4.20;;;;;;;17.01;100.00;102123.31;5032573;28;20437;-43
2023/05/21 05:43:01;;;;;;;5.13;4.50;;;;;;;16.82;100.00;102125.94;5031777;28;20465;-45
2023/05/21 05:45:30;;;;;;;6.03;4.70;;;;;;;16.83;100.00;102127.63;5032480;28;20526;-44
2023/05/21 05:47:58;;;;;;;6.17;5.13;;;;;;;16.65;100.00;102120.13;5032314;28;20842;-43
2023/05/21 05:50:25;;;;;;;9.03;5.53;;;;;;;17.77;100.00;102120.22;5032477;28;20858;-42
2023/05/21 05:52:53;;;;;;;5.20;4.80;;;;;;;18.39;100.00;102120.44;5031834;28;20490;-44
2023/05/21 05:55:23;;;;;;;4.80;4.50;;;;;;;18.61;100.00;102124.50;5020578;28;20555;-41
2023/05/21 05:57:53;;;;;;;6.10;5.50;;;;;;;19.23;100.00;102114.75;5019167;28;20440;-43
2023/05/21 06:00:21;;;;;;;6.37;5.33;;;;;;;19.25;98.21;102105.34;5016452;28;20472;-44
2023/05/21 06:02:48;;;;;;;6.80;5.00;;;;;;;19.23;98.51;102101.22;5012065;28;21037;-44
2023/05/21 06:05:16;;;;;;;6.27;4.80;;;;;;;19.51;97.23;102096.19;5011944;28;20460;-43
2023/05/21 06:07:44;;;;;;;7.70;5.20;;;;;;;18.93;99.73;102103.72;5012385;28;20433;-42
2023/05/21 06:10:12;;;;;;;7.43;4.40;;;;;;;18.10;100.00;102099.34;5012229;28;20938;-43
2023/05/21 06:12:39;;;;;;;9.37;5.73;;;;;;;17.55;100.00;102106.97;5012102;28;20866;-45
2023/05/21 06:15:09;;;;;;;6.47;5.10;;;;;;;16.90;100.00;102110.44;5011676;28;20826;-42
2023/05/21 06:17:37;;;;;;;5.73;5.23;;;;;;;16.65;100.00;102112.03;5011390;28;20463;-42
2023/05/21 06:20:08;;;;;;;7.00;5.17;;;;;;;16.49;100.00;102118.59;5012008;28;20438;-42
2023/05/21 06:22:36;;;;;;;5.67;5.00;;;;;;;16.65;100.00;102113.91;5011838;28;20475;-43
2023/05/21 06:25:05;;;;;;;5.10;4.80;;;;;;;16.38;100.00;102121.03;5011813;28;20468;-43
2023/05/21 06:27:33;;;;;;;8.90;4.83;;;;;;;16.40;100.00;102118.94;5024997;28;20436;-40
2023/05/21 06:30:01;;;;;;;6.77;5.57;;;;;;;16.78;100.00;102100.47;5031798;28;20438;-42
2023/05/21 06:32:30;;;;;;;9.40;6.10;;;;;;;17.09;100.00;102114.19;5031117;28;20456;-42
2023/05/21 06:34:57;;;;;;;5.87;5.17;;;;;;;17.06;100.00;102115.44;5030962;28;20491;-40
2023/05/21 06:37:25;;;;;;;7.53;5.53;;;;;;;17.07;100.00;102116.25;5031697;28;20479;-42
2023/05/21 06:39:53;;;;;;;6.83;5.10;;;;;;;17.87;100.00;102110.63;5025730;28;20514;-43
2023/05/21 06:42:21;;;;;;;10.73;5.67;;;;;;;18.34;100.00;102116.72;5023541;28;20438;-41
2023/05/21 06:44:48;;;;;;;10.70;6.00;;;;;;;17.83;100.00;102114.78;5029650;28;20463;-41
2023/05/21 06:47:16;;;;;;;6.30;5.80;;;;;;;17.73;100.00;102110.88;5030583;28;20434;-43
2023/05/21 06:49:45;;;;;;;6.33;5.37;;;;;;;17.53;100.00;102121.66;5029793;28;20938;-41
2023/05/21 06:52:13;;;;;;;7.50;6.20;;;;;;;17.78;100.00;102130.78;5029780;28;20436;-42
2023/05/21 06:54:41;;;;;;;6.50;5.90;;;;;;;17.99;100.00;102127.84;5029331;28;20463;-41
2023/05/21 06:57:08;;;;;;;6.47;5.90;;;;;;;18.00;100.00;102134.91;5030796;28;20471;-41
2023/05/21 06:59:36;;;;;;;7.90;6.30;;;;;;;17.91;100.00;102130.75;5029887;28;20432;-45
2023/05/21 07:02:04;;;;;;;13.50;6.43;;;;;;;18.01;100.00;102128.44;5030120;28;20446;-44
2023/05/21 07:04:33;;;;;;;6.07;5.47;;;;;;;17.83;100.00;102124.78;5026934;28;21118;-41
2023/05/21 07:07:03;;;;;;;6.83;6.03;;;;;;;17.92;100.00;102126.19;5030848;28;20431;-42
2023/05/21 07:09:31;;;;;;;7.20;6.50;;;;;;;18.23;100.00;102118.19;5030027;28;20431;-42
2023/05/21 07:12:00;;;;;;;9.63;5.67;;;;;;;18.55;100.00;102124.50;5032573;28;20864;-43
2023/05/21 07:14:27;;;;;;;6.50;5.90;;;;;;;18.38;100.00;102129.56;5033343;28;20467;-41
2023/05/21 07:16:55;;;;;;;9.23;6.17;;;;;;;18.59;100.00;102123.06;5033741;28;21052;-41
2023/05/21 07:19:23;;;;;;;7.57;6.77;;;;;;;18.55;100.00;102127.22;5033203;28;20435;-42
2023/05/21 07:21:50;;;;;;;10.13;6.37;;;;;;;18.50;100.00;102127.03;5033697;28;20446;-41
2023/05/21 07:24:19;;;;;;;7.00;6.13;;;;;;;18.17;100.00;102130.69;5033094;28;20856;-43
2023/05/21 07:26:47;;;;;;;7.40;6.40;;;;;;;18.24;100.00;102125.25;5031971;28;20935;-41
2023/05/21 07:29:15;;;;;;;9.97;7.10;;;;;;;18.13;100.00;102134.84;5033617;28;20937;-42
2023/05/21 07:31:43;;;;;;;6.90;6.17;;;;;;;17.77;100.00;102128.31;5033682;28;20530;-45
2023/05/21 07:34:11;;;;;;;6.53;5.93;;;;;;;17.52;100.00;102126.22;5031850;28;20467;-41
2023/05/21 07:36:38;;;;;;;8.80;6.33;;;;;;;17.39;100.00;102141.56;5033888;28;20477;-41
2023/05/21 07:39:06;;;;;;;6.70;6.20;;;;;;;17.17;100.00;102134.72;5033506;28;20435;-41
2023/05/21 07:41:35;;;;;;;7.40;6.80;;;;;;;17.23;100.00;102137.44;5033689;28;20817;-41
2023/05/21 07:44:03;;;;;;;8.00;6.63;;;;;;;17.10;100.00;102130.16;5032591;28;20845;-42
2023/05/21 07:46:30;;;;;;;8.80;6.80;;;;;;;17.17;100.00;102122.09;5033283;28;20460;-46
2023/05/21 07:48:58;;;;;;;11.03;7.30;;;;;;;17.19;100.00;102128.09;5033316;28;20457;-41
2023/05/21 07:51:27;;;;;;;7.87;6.90;;;;;;;17.28;100.00;102126.84;5033353;28;20534;-44
2023/05/21 07:53:55;;;;;;;9.40;6.70;;;;;;;17.20;100.00;102118.16;5032765;28;20471;-44
2023/05/21 07:56:22;;;;;;;6.90;6.30;;;;;;;17.28;100.00;102123.31;5033373;28;20562;-40
2023/05/21 07:58:52;;;;;;;8.70;6.13;;;;;;;17.37;100.00;102124.78;5033609;28;20454;-43
2023/05/21 08:01:21;;;;;;;10.13;6.63;;;;;;;17.42;100.00;102122.28;5033261;28;20428;-41
2023/05/21 08:03:49;;;;;;;10.43;6.80;;;;;;;17.27;100.00;102118.97;5029519;28;20471;-41
2023/05/21 08:06:17;;;;;;;7.33;6.63;;;;;;;17.46;100.00;102115.44;5031482;28;20515;-41
2023/05/21 08:08:45;;;;;;;9.67;7.00;;;;;;;17.39;100.00;102118.13;5033429;28;20431;-41
2023/05/21 08:11:13;;;;;;;9.33;7.93;;;;;;;17.32;100.00;102121.88;5032510;28;20511;-42
2023/05/21 08:13:41;;;;;;;7.97;7.27;;;;;;;17.40;100.00;102111.72;5031692;28;20506;-41
2023/05/21 08:16:10;;;;;;;10.83;7.10;;;;;;;17.63;100.00;102114.00;5032712;28;20508;-45
2023/05/21 08:18:37;;;;;;;7.40;6.70;;;;;;;17.80;100.00;102125.19;5033345;28;20447;-44
2023/05/21 08:21:05;;;;;;;9.97;7.73;;;;;;;17.86;100.00;102116.25;5033184;28;20798;-44
2023/05/21 08:23:33;;;;;;;11.47;7.30;;;;;;;17.97;100.00;102108.34;5030825;28;20483;-41
2023/05/21 08:26:01;;;;;;;9.03;7.47;;;;;;;17.91;100.00;102114.56;5030371;28;20630;-42
2023/05/21 08:28:30;;;;;;;8.47;7.67;;;;;;;17.88;100.00;102124.97;5032804;28;20921;-41
2023/05/21 08:30:58;;;;;;;9.17;6.97;;;;;;;18.06;100.00;102125.94;5032982;28;20451;-42
2023/05/21 08:33:27;;;;;;;12.30;8.40;;;;;;;17.90;100.00;102126.41;5031092;28;20464;-41
2023/05/21 08:35:55;;;;;;;9.80;7.17;;;;;;;18.11;100.00;102131.53;5032813;28;20842;-46
2023/05/21 08:38:22;;;;;;;11.00;7.70;;;;;;;18.30;100.00;102129.81;5032734;28;20477;-41
2023/05/21 08:40:53;;;;;;;10.10;6.90;;;;;;;18.20;100.00;102129.41;5032368;28;20474;-44
2023/05/21 08:43:21;;;;;;;9.53;8.50;;;;;;;18.29;100.00;102138.13;5031113;28;20464;-41
2023/05/21 08:45:55;;;;;;;8.07;7.30;;;;;;;18.14;100.00;102133.81;5032487;28;20937;-42
2023/05/21 08:48:23;;;;;;;8.37;7.00;;;;;;;18.14;100.00;102124.88;5032499;28;20436;-41
2023/05/21 08:50:54;;;;;;;7.77;7.13;;;;;;;18.23;100.00;102118.19;5031548;28;20454;-41
2023/05/21 08:53:23;;;;;;;9.73;8.27;;;;;;;18.13;100.00;102107.84;5030875;28;20491;-41
2023/05/21 08:55:56;;;;;;;8.20;7.40;;;;;;;18.27;100.00;102105.09;5031317;28;20435;-43
2023/05/21 08:58:24;;;;;;;7.23;6.57;;;;;;;18.31;100.00;102123.34;5032411;28;20475;-47
2023/05/21 09:00:52;;;;;;;9.93;7.53;;;;;;;18.35;100.00;102104.84;5032119;28;20828;-43
2023/05/21 09:03:21;;;;;;;9.10;7.10;;;;;;;18.41;100.00;102101.28;5023909;28;20460;-44
2023/05/21 09:05:50;;;;;;;8.90;7.87;;;;;;;18.51;100.00;102109.81;5024688;28;20797;-43
2023/05/21 09:08:22;;;;;;;8.70;7.80;;;;;;;18.23;100.00;102108.22;5033487;28;20434;-43
2023/05/21 09:10:52;;;;;;;7.80;7.07;;;;;;;18.08;100.00;102106.81;5033043;28;20434;-45
2023/05/21 09:13:21;;;;;;;8.10;7.07;;;;;;;18.21;100.00;102099.53;5032320;28;20459;-45
2023/05/21 09:15:50;;;;;;;7.97;7.20;;;;;;;18.30;100.00;102107.38;5033095;28;20486;-42
2023/05/21 09:18:18;;;;;;;11.93;8.17;;;;;;;18.62;100.00;102104.53;5032691;28;20471;-43
2023/05/21 09:20:45;;;;;;;9.30;8.40;;;;;;;18.76;100.00;102100.72;5032801;28;20478;-42
2023/05/21 09:23:18;;;;;;;9.13;7.90;;;;;;;19.25;100.00;102101.81;5032386;28;20452;-43
2023/05/21 09:25:48;;;;;;;8.97;8.17;;;;;;;19.33;100.00;102102.34;5032143;28;20424;-44
2023/05/21 09:28:17;;;;;;;8.27;7.57;;;;;;;18.93;100.00;102092.91;5031862;28;20424;-43
2023/05/21 09:30:46;;;;;;;10.90;7.40;;;;;;;19.52;100.00;102100.56;5032588;28;20526;-43
2023/05/21 09:33:24;;;;;;;9.30;8.37;;;;;;;19.37;100.00;102093.81;5031464;28;20544;-44
2023/05/21 09:35:52;;;;;;;9.20;8.40;;;;;;;19.58;100.00;102077.19;5032751;28;20924;-45
2023/05/21 09:38:23;;;;;;;10.00;9.20;;;;;;;19.36;100.00;102082.16;5032668;28;20558;-43
2023/05/21 09:40:51;;;;;;;9.10;8.20;;;;;;;19.60;100.00;102088.59;5032670;28;20427;-43
2023/05/21 09:43:21;;;;;;;9.10;7.67;;;;;;;19.63;100.00;102080.88;5031457;28;20459;-44
2023/05/21 09:45:52;;;;;;;10.93;7.80;;;;;;;19.68;100.00;102082.94;5032379;28;20945;-43
2023/05/21 09:48:33;;;;;;;9.17;8.30;;;;;;;19.77;100.00;102087.00;5032049;28;20432;-43
2023/05/21 09:51:11;;;;;;;8.37;7.60;;;;;;;19.65;100.00;102083.38;5032591;28;20432;-44
2023/05/21 09:53:50;;;;;;;10.17;9.10;;;;;;;19.35;100.00;102081.31;5031576;28;21118;-43
2023/05/21 09:56:23;;;;;;;9.17;8.43;;;;;;;19.40;100.00;102087.97;5032507;28;20463;-44
2023/05/21 09:58:53;;;;;;;10.13;7.83;;;;;;;19.52;100.00;102087.03;5032071;28;20475;-42
2023/05/21 10:01:21;;;;;;;9.37;8.30;;;;;;;19.54;100.00;102079.50;5032096;28;20420;-43
2023/05/21 10:03:54;;;;;;;8.90;7.30;;;;;;;19.68;100.00;102082.94;5031185;28;20502;-44
2023/05/21 10:06:26;;;;;;;10.13;8.40;;;;;;;19.65;100.00;102084.19;5032239;28;20435;-45
2023/05/21 10:08:56;;;;;;;9.17;8.47;;;;;;;19.78;100.00;102075.94;5032413;28;20432;-44
2023/05/21 10:11:27;;;;;;;10.13;8.53;;;;;;;19.73;100.00;102069.53;5032066;28;20856;-47
2023/05/21 10:13:58;;;;;;;8.33;7.53;;;;;;;19.67;100.00;102086.66;5031552;28;20547;-43
2023/05/21 10:16:25;;;;;;;13.03;8.17;;;;;;;19.60;100.00;102092.16;5031995;28;20434;-43
2023/05/21 10:18:56;;;;;;;9.53;8.60;;;;;;;19.72;100.00;102070.59;5031357;28;20468;-44
2023/05/21 10:21:25;;;;;;;9.50;8.70;;;;;;;19.64;100.00;102060.88;5032005;28;20901;-42
2023/05/21 10:23:56;;;;;;;11.00;8.87;;;;;;;19.55;100.00;102067.66;5031654;28;20467;-43
2023/05/21 10:26:24;;;;;;;9.43;8.47;;;;;;;19.49;100.00;102067.72;5029866;28;20432;-43
2023/05/21 10:28:52;;;;;;;10.10;8.40;;;;;;;19.62;100.00;102073.78;5031384;28;20937;-45
2023/05/21 10:31:20;;;;;;;10.60;9.40;;;;;;;19.89;100.00;102052.72;5031081;28;20463;-43
2023/05/21 10:33:48;;;;;;;10.80;8.67;;;;;;;19.95;100.00;102053.69;5031443;28;20467;-43
2023/05/21 10:36:17;;;;;;;12.53;7.90;;;;;;;19.92;100.00;102048.72;5031866;28;20478;-43
2023/05/21 10:38:45;;;;;;;9.10;8.10;;;;;;;19.99;100.00;102044.88;5031784;28;20482;-44
2023/05/21 10:41:16;;;;;;;12.33;9.20;;;;;;;20.18;100.00;102059.22;5031756;28;20506;-43
2023/05/21 10:44:01;;;;;;;9.83;8.50;;;;;;;20.12;100.00;102050.13;5030839;28;20474;-47
2023/05/21 10:46:58;;;;;;;9.97;8.97;;;;;;;20.28;100.00;102060.34;5037310;28;20427;-47
2023/05/21 10:49:41;;;;;;;9.13;8.30;;;;;;;20.20;100.00;102038.13;5038337;28;20798;-42
2023/05/21 10:52:23;;;;;;;12.87;8.50;;;;;;;20.36;100.00;102046.50;5037855;28;20434;-42
2023/05/21 10:55:07;;;;;;;8.30;7.70;;;;;;;20.22;100.00;102041.47;5037652;28;20466;-43
2023/05/21 10:57:53;;;;;;;10.83;8.83;;;;;;;20.48;100.00;102045.72;5038090;28;20474;-43
2023/05/21 11:00:21;;;;;;;9.03;8.27;;;;;;;20.55;100.00;102041.03;5037569;28;20522;-44
2023/05/21 11:02:50;;;;;;;9.80;8.97;;;;;;;20.51;100.00;102047.97;5038039;28;20864;-43
2023/05/21 11:05:38;;;;;;;10.00;8.17;;;;;;;20.43;100.00;102039.09;5034055;28;20471;-43
2023/05/21 11:08:18;;;;;;;9.10;7.50;;;;;;;20.62;100.00;102037.16;5038164;28;20433;-42
2023/05/21 11:10:51;;;;;;;8.77;7.93;;;;;;;20.83;100.00;102038.50;5037860;28;20427;-43
2023/05/21 11:13:21;;;;;;;8.47;7.07;;;;;;;21.03;100.00;102030.06;5037224;28;20485;-42
2023/05/21 11:16:13;;;;;;;7.83;7.13;;;;;;;21.05;100.00;102034.19;5037499;28;20428;-43
2023/05/21 11:19:00;;;;;;;8.93;7.60;;;;;;;21.10;100.00;102045.16;5038011;28;20466;-43
2023/05/21 11:21:33;;;;;;;8.90;8.10;;;;;;;20.99;100.00;102043.25;5038052;28;20427;-42
2023/05/21 11:24:07;;;;;;;7.90;7.10;;;;;;;21.04;100.00;102037.94;5037163;28;20494;-45
2023/05/21 11:27:03;;;;;;;10.47;7.93;;;;;;;21.23;100.00;102031.38;5035578;28;20438;-42